createdAt,value
2019-05-20T00:01:26.758Z,2.00
2019-05-20T00:03:57.889Z,2.03
2019-05-20T00:06:28.372Z,1.20
2019-05-20T00:08:59.141Z,1.70
2019-05-20T00:11:29.239Z,1.70
2019-05-20T00:13:59.752Z,1.37
2019-05-20T00:16:31.177Z,1.57
2019-05-20T00:19:02.281Z,1.57
2019-05-20T00:21:32.443Z,1.97
2019-05-20T00:24:03.390Z,1.77
2019-05-20T00:26:34.275Z,1.67
2019-05-20T00:29:04.993Z,1.60
2019-05-20T00:31:36.013Z,1.83
2019-05-20T00:34:06.761Z,2.40
2019-05-20T00:36:37.085Z,1.70
2019-05-20T00:39:18.801Z,1.90
2019-05-20T00:41:51.453Z,2.23
2019-05-20T00:44:22.579Z,1.87
2019-05-20T00:46:52.825Z,2.07
2019-05-20T00:49:23.334Z,1.10
2019-05-20T00:51:54.415Z,1.80
2019-05-20T00:54:25.538Z,1.83
2019-05-20T00:56:56.514Z,1.10
2019-05-20T00:59:28.658Z,2.30
2019-05-20T01:01:59.169Z,2.20
2019-05-20T01:04:29.956Z,2.00
2019-05-20T01:07:00.478Z,3.10
2019-05-20T01:09:30.539Z,1.63
2019-05-20T01:12:01.546Z,2.70
2019-05-20T01:14:32.504Z,1.80
2019-05-20T01:17:03.452Z,1.63
2019-05-20T01:19:34.538Z,2.03
2019-05-20T01:22:05.274Z,2.60
2019-05-20T01:24:36.476Z,2.37
2019-05-20T01:27:08.432Z,1.83
2019-05-20T01:29:39.175Z,3.13
2019-05-20T01:32:10.126Z,2.10
2019-05-20T01:34:41.276Z,2.20
2019-05-20T01:37:12.007Z,1.93
2019-05-20T01:39:42.516Z,1.57
2019-05-20T01:42:12.818Z,2.17
2019-05-20T01:44:43.429Z,2.27
2019-05-20T01:47:13.738Z,2.53
2019-05-20T01:49:44.004Z,2.50
2019-05-20T01:52:14.803Z,2.03
2019-05-20T01:54:44.934Z,2.30
2019-05-20T01:57:17.519Z,1.53
2019-05-20T01:59:48.138Z,1.40
2019-05-20T02:02:18.416Z,2.10
2019-05-20T02:04:49.113Z,2.37
2019-05-20T02:07:20.462Z,2.47
2019-05-20T02:09:51.399Z,2.77
2019-05-20T02:12:21.938Z,2.60
2019-05-20T02:14:58.413Z,2.17
2019-05-20T02:17:28.970Z,2.60
2019-05-20T02:19:59.687Z,2.70
2019-05-20T02:22:30.219Z,3.23
2019-05-20T02:25:01.359Z,2.10
2019-05-20T02:27:32.715Z,4.07
2019-05-20T02:30:03.837Z,2.70
2019-05-20T02:32:34.751Z,3.70
2019-05-20T02:35:05.348Z,3.70
2019-05-20T02:37:37.117Z,3.53
2019-05-20T02:40:08.833Z,5.10
2019-05-20T02:42:39.973Z,4.83
2019-05-20T02:45:12.192Z,3.80
2019-05-20T02:47:42.931Z,4.40
2019-05-20T02:50:13.780Z,6.10
2019-05-20T02:52:44.227Z,3.97
2019-05-20T02:55:16.721Z,5.50
2019-05-20T02:57:48.136Z,5.53
2019-05-20T03:00:19.275Z,6.27
2019-05-20T03:02:50.167Z,6.43
2019-05-20T03:05:20.684Z,6.67
2019-05-20T03:07:51.917Z,7.50
2019-05-20T03:10:22.643Z,8.60
2019-05-20T03:12:53.589Z,4.80
2019-05-20T03:15:24.332Z,6.90
2019-05-20T03:17:55.684Z,7.87
2019-05-20T03:20:25.747Z,6.67
2019-05-20T03:22:56.697Z,5.07
2019-05-20T03:25:27.488Z,6.77
2019-05-20T03:27:57.616Z,7.43
2019-05-20T03:30:28.358Z,8.07
2019-05-20T03:32:59.098Z,8.77
2019-05-20T03:35:29.637Z,9.20
2019-05-20T03:38:00.565Z,7.73
2019-05-20T03:40:31.179Z,6.77
2019-05-20T03:43:02.249Z,9.80
2019-05-20T03:45:33.195Z,8.13
2019-05-20T03:48:03.694Z,9.77
2019-05-20T03:50:34.577Z,7.80
2019-05-20T03:53:04.797Z,7.70
2019-05-20T03:55:35.583Z,9.23
2019-05-20T03:58:05.744Z,8.73
2019-05-20T04:00:53.753Z,10.13
2019-05-20T04:03:24.973Z,9.47
2019-05-20T04:05:56.102Z,10.13
2019-05-20T04:08:26.814Z,11.07
2019-05-20T04:10:57.584Z,12.10
2019-05-20T04:13:28.470Z,10.37
2019-05-20T04:15:59.270Z,10.17
2019-05-20T04:18:29.607Z,11.80
2019-05-20T04:21:00.753Z,9.57
2019-05-20T04:23:31.423Z,11.67
2019-05-20T04:26:02.006Z,8.97
2019-05-20T04:28:32.668Z,8.80
2019-05-20T04:31:06.557Z,11.10
2019-05-20T04:33:37.461Z,9.53
2019-05-20T04:36:08.642Z,11.03
2019-05-20T04:38:39.002Z,13.40
2019-05-20T04:41:09.919Z,9.33
2019-05-20T04:43:40.866Z,10.00
2019-05-20T04:46:12.833Z,12.10
2019-05-20T04:48:43.980Z,11.20
2019-05-20T04:51:15.115Z,10.30
2019-05-20T04:53:46.699Z,10.63
2019-05-20T04:56:17.425Z,9.60
2019-05-20T04:58:48.310Z,8.83
2019-05-20T05:01:19.540Z,9.97
2019-05-20T05:03:50.263Z,10.90
2019-05-20T05:06:21.200Z,15.20
2019-05-20T05:08:51.530Z,9.50
2019-05-20T05:11:22.408Z,10.93
2019-05-20T05:13:54.534Z,8.70
2019-05-20T05:16:25.180Z,10.37
2019-05-20T05:18:55.392Z,11.50
2019-05-20T05:21:26.047Z,10.47
2019-05-20T05:23:59.330Z,13.33
2019-05-20T05:26:29.769Z,11.50
2019-05-20T05:29:00.590Z,10.80
2019-05-20T05:31:31.452Z,10.13
2019-05-20T05:34:01.807Z,9.73
2019-05-20T05:36:32.943Z,11.97
2019-05-20T05:39:04.815Z,10.90
2019-05-20T05:41:35.440Z,12.40
2019-05-20T05:44:05.712Z,11.67
2019-05-20T05:46:36.899Z,11.30
2019-05-20T05:49:07.575Z,11.10
2019-05-20T05:51:38.395Z,11.73
2019-05-20T05:54:09.294Z,11.73
2019-05-20T05:56:42.293Z,11.77
2019-05-20T05:59:13.208Z,11.17
2019-05-20T06:01:44.143Z,12.13
2019-05-20T06:04:14.284Z,11.10
2019-05-20T06:06:45.491Z,11.00
2019-05-20T06:09:16.165Z,12.30
2019-05-20T06:11:47.365Z,11.40
2019-05-20T06:14:18.316Z,11.57
2019-05-20T06:16:48.841Z,10.30
2019-05-20T06:19:19.582Z,11.33
2019-05-20T06:21:50.061Z,10.80
2019-05-20T06:24:21.469Z,12.77
2019-05-20T06:26:52.402Z,9.60
2019-05-20T06:29:22.685Z,10.10
2019-05-20T06:31:53.863Z,11.67
2019-05-20T06:34:25.327Z,10.83
2019-05-20T06:36:58.141Z,11.43
2019-05-20T06:39:29.174Z,10.80
2019-05-20T06:41:59.646Z,12.07
2019-05-20T06:44:30.225Z,11.40
2019-05-20T06:47:01.185Z,11.50
2019-05-20T06:49:32.019Z,13.37
2019-05-20T06:52:02.456Z,10.13
2019-05-20T06:54:32.992Z,11.30
2019-05-20T06:57:04.346Z,11.80
2019-05-20T06:59:35.083Z,13.10
2019-05-20T07:02:06.643Z,11.10
2019-05-20T07:04:37.391Z,11.10
2019-05-20T07:07:19.909Z,11.90
2019-05-20T07:09:39.550Z,13.03
2019-05-20T07:12:10.822Z,11.63
2019-05-20T07:14:41.939Z,11.40
2019-05-20T07:17:12.480Z,11.53
2019-05-20T07:19:43.241Z,9.03
2019-05-20T07:22:14.409Z,12.00
2019-05-20T07:24:45.090Z,12.37
2019-05-20T07:27:16.904Z,8.90
2019-05-20T07:29:47.489Z,13.63
2019-05-20T07:32:18.782Z,11.20
2019-05-20T07:34:50.138Z,11.50
2019-05-20T07:37:22.345Z,10.10
2019-05-20T07:39:53.021Z,10.00
2019-05-20T07:42:23.782Z,12.20
2019-05-20T07:44:54.470Z,12.73
2019-05-20T07:47:25.475Z,12.50
2019-05-20T07:49:57.445Z,10.43
2019-05-20T07:52:29.408Z,10.87
2019-05-20T07:55:01.326Z,11.27
2019-05-20T07:57:35.603Z,12.90
2019-05-20T08:00:06.518Z,10.93
2019-05-20T08:02:37.613Z,12.77
2019-05-20T08:05:09.236Z,10.80
2019-05-20T08:07:51.945Z,7.50
2019-05-20T08:10:14.768Z,8.60
2019-05-20T08:12:45.555Z,8.13
2019-05-20T08:15:17.680Z,9.70
2019-05-20T08:17:48.278Z,6.63
2019-05-20T08:20:19.061Z,5.77
2019-05-20T08:22:50.502Z,5.27
2019-05-20T08:25:22.930Z,6.00
2019-05-20T08:27:53.287Z,6.77
2019-05-20T08:30:37.316Z,5.93
2019-05-20T08:33:09.402Z,6.00
2019-05-20T08:35:40.640Z,4.50
2019-05-20T08:38:12.794Z,5.60
2019-05-20T08:40:47.829Z,5.70
2019-05-20T08:43:16.741Z,4.90
2019-05-20T08:45:48.086Z,5.57
2019-05-20T08:48:18.721Z,5.30
2019-05-20T08:50:50.180Z,4.40
2019-05-20T08:53:20.913Z,5.10
2019-05-20T08:55:51.810Z,5.97
2019-05-20T08:58:22.601Z,4.57
2019-05-20T09:00:53.770Z,5.23
2019-05-20T09:03:24.497Z,7.27
2019-05-20T09:05:55.378Z,6.00
2019-05-20T09:08:26.586Z,5.90
2019-05-20T09:10:57.723Z,4.93
2019-05-20T09:13:29.086Z,6.93
2019-05-20T09:16:00.448Z,7.03
2019-05-20T09:18:30.582Z,5.23
2019-05-20T09:21:01.706Z,6.93
2019-05-20T09:23:32.844Z,5.87
2019-05-20T09:26:04.011Z,4.73
2019-05-20T09:28:34.956Z,6.50
2019-05-20T09:31:06.091Z,6.07
2019-05-20T09:33:38.467Z,6.27
2019-05-20T09:36:10.224Z,7.13
2019-05-20T09:38:40.349Z,6.27
2019-05-20T09:41:10.486Z,5.47
2019-05-20T09:43:41.033Z,6.70
2019-05-20T09:46:12.223Z,5.83
2019-05-20T09:48:43.029Z,6.40
2019-05-20T09:51:13.169Z,5.33
2019-05-20T09:53:44.165Z,6.30
2019-05-20T09:56:15.123Z,7.23
2019-05-20T09:58:46.084Z,5.43
2019-05-20T10:01:18.031Z,6.30
2019-05-20T10:03:48.507Z,7.53
2019-05-20T10:06:19.725Z,6.07
2019-05-20T10:08:49.982Z,6.17
2019-05-20T10:11:20.781Z,4.83
2019-05-20T10:13:51.520Z,5.77
2019-05-20T10:16:22.259Z,5.60
2019-05-20T10:18:55.348Z,4.90
2019-05-20T10:21:25.783Z,5.37
2019-05-20T10:23:56.738Z,5.00
2019-05-20T10:26:27.285Z,6.80
2019-05-20T10:28:57.920Z,6.70
2019-05-20T10:31:29.381Z,7.53
2019-05-20T10:34:01.938Z,7.07
2019-05-20T10:36:33.490Z,6.60
2019-05-20T10:39:07.837Z,6.73
2019-05-20T10:41:38.274Z,7.90
2019-05-20T10:44:09.386Z,7.40
2019-05-20T10:46:39.464Z,7.07
2019-05-20T10:49:09.862Z,8.80
2019-05-20T10:51:41.194Z,7.40
2019-05-20T10:54:11.933Z,7.83
2019-05-20T10:56:42.013Z,7.83
2019-05-20T10:59:12.945Z,6.80
2019-05-20T11:01:43.324Z,7.67
2019-05-20T11:04:14.686Z,6.37
2019-05-20T11:06:45.575Z,7.33
2019-05-20T11:09:17.366Z,6.33
2019-05-20T11:11:48.124Z,6.77
2019-05-20T11:14:18.457Z,7.53
2019-05-20T11:16:49.402Z,7.00
2019-05-20T11:19:20.514Z,7.10
2019-05-20T11:21:51.921Z,7.87
2019-05-20T11:24:23.050Z,7.97
2019-05-20T11:26:53.786Z,5.87
2019-05-20T11:29:24.690Z,6.47
2019-05-20T11:31:54.830Z,6.63
2019-05-20T11:34:25.397Z,7.73
2019-05-20T11:36:56.117Z,5.10
2019-05-20T11:39:33.127Z,6.33
2019-05-20T11:41:59.042Z,7.33
2019-05-20T11:44:29.586Z,6.17
2019-05-20T11:47:00.100Z,8.40
2019-05-20T11:49:30.353Z,6.97
2019-05-20T11:52:00.969Z,7.23
2019-05-20T11:54:31.490Z,5.70
2019-05-20T11:57:02.451Z,5.67
2019-05-20T11:59:32.980Z,6.30
2019-05-20T12:02:04.181Z,6.00
2019-05-20T12:04:35.016Z,7.60
2019-05-20T12:07:08.610Z,8.10
2019-05-20T12:09:48.819Z,6.73
2019-05-20T12:12:10.716Z,6.93
2019-05-20T12:14:42.089Z,5.53
2019-05-20T12:17:13.468Z,7.20
2019-05-20T12:19:44.247Z,8.37
2019-05-20T12:22:14.756Z,8.43
2019-05-20T12:24:45.070Z,9.67
2019-05-20T12:27:15.606Z,8.37
2019-05-20T12:29:46.454Z,9.20
2019-05-20T12:32:17.903Z,5.93
2019-05-20T12:34:48.488Z,6.57
2019-05-20T12:37:19.595Z,8.17
2019-05-20T12:40:05.898Z,6.93
2019-05-20T12:42:22.645Z,7.03
2019-05-20T12:44:53.440Z,9.47
2019-05-20T12:47:24.388Z,8.20
2019-05-20T12:49:55.301Z,7.37
2019-05-20T12:52:26.271Z,6.70
2019-05-20T12:55:07.921Z,8.10
2019-05-20T12:57:30.001Z,6.63
2019-05-20T13:00:00.394Z,6.83
2019-05-20T13:02:31.475Z,6.90
2019-05-20T13:05:02.675Z,7.40
2019-05-20T13:07:34.179Z,9.13
2019-05-20T13:10:05.016Z,8.07
2019-05-20T13:12:36.030Z,9.00
2019-05-20T13:15:07.764Z,7.83
2019-05-20T13:17:42.904Z,8.87
2019-05-20T13:20:11.720Z,9.27
2019-05-20T13:22:42.285Z,9.27
2019-05-20T13:25:13.994Z,7.00
2019-05-20T13:27:44.550Z,8.53
2019-05-20T13:30:16.564Z,9.07
2019-05-20T13:32:47.918Z,8.20
2019-05-20T13:35:18.192Z,8.33
2019-05-20T13:37:48.727Z,7.70
2019-05-20T13:40:20.729Z,10.60
2019-05-20T13:42:50.873Z,10.03
2019-05-20T13:45:22.425Z,10.30
2019-05-20T13:47:52.580Z,9.07
2019-05-20T13:50:24.376Z,10.70
2019-05-20T13:52:56.081Z,10.53
2019-05-20T13:55:27.029Z,9.30
2019-05-20T13:57:57.961Z,8.73
2019-05-20T14:00:28.846Z,9.40
2019-05-20T14:02:59.411Z,10.53
2019-05-20T14:05:29.981Z,10.83
2019-05-20T14:08:00.923Z,10.70
2019-05-20T14:10:31.690Z,10.73
2019-05-20T14:13:02.606Z,8.73
2019-05-20T14:15:33.136Z,8.53
2019-05-20T14:18:03.873Z,10.67
2019-05-20T14:20:36.066Z,10.07
2019-05-20T14:23:07.616Z,10.87
2019-05-20T14:25:38.962Z,10.37
2019-05-20T14:28:09.930Z,10.50
2019-05-20T14:30:40.226Z,11.00
2019-05-20T14:33:10.975Z,9.57
2019-05-20T14:35:41.702Z,7.80
2019-05-20T14:38:12.604Z,11.77
2019-05-20T14:40:43.534Z,8.30
2019-05-20T14:43:14.485Z,10.43
2019-05-20T14:45:45.700Z,11.43
2019-05-20T14:48:16.279Z,10.70
2019-05-20T14:50:47.158Z,10.60
2019-05-20T14:53:17.703Z,10.60
2019-05-20T14:55:49.255Z,9.17
2019-05-20T14:58:19.796Z,9.40
2019-05-20T15:00:50.238Z,9.00
2019-05-20T15:03:21.011Z,10.47
2019-05-20T15:05:51.801Z,10.17
2019-05-20T15:08:23.984Z,9.57
2019-05-20T15:10:54.656Z,10.60
2019-05-20T15:13:25.657Z,9.70
2019-05-20T15:15:56.598Z,10.47
2019-05-20T15:18:27.542Z,10.47
2019-05-20T15:20:58.009Z,9.47
2019-05-20T15:23:28.224Z,11.37
2019-05-20T15:25:58.363Z,10.83
2019-05-20T15:28:28.604Z,8.50
2019-05-20T15:30:58.945Z,8.63
2019-05-20T15:33:29.675Z,9.90
2019-05-20T15:35:59.963Z,8.50
2019-05-20T15:38:30.751Z,10.70
2019-05-20T15:41:01.312Z,11.10
2019-05-20T15:43:32.272Z,11.33
2019-05-20T15:46:03.040Z,10.70
2019-05-20T15:48:34.151Z,10.20
2019-05-20T15:51:04.857Z,11.53
2019-05-20T15:53:35.375Z,11.00
2019-05-20T15:56:06.501Z,9.53
2019-05-20T15:58:39.561Z,11.93
2019-05-20T16:01:10.706Z,11.57
2019-05-20T16:03:41.668Z,10.33
2019-05-20T16:06:13.419Z,11.63
2019-05-20T16:08:44.375Z,12.07
2019-05-20T16:11:15.034Z,11.40
2019-05-20T16:13:46.007Z,10.63
2019-05-20T16:16:16.801Z,10.33
2019-05-20T16:18:47.053Z,11.90
2019-05-20T16:21:18.009Z,12.53
2019-05-20T16:23:48.661Z,11.50
2019-05-20T16:26:19.125Z,11.20
2019-05-20T16:28:50.062Z,10.90
2019-05-20T16:31:20.181Z,11.80
2019-05-20T16:33:50.678Z,10.77
2019-05-20T16:36:21.871Z,11.10
2019-05-20T16:38:51.949Z,10.63
2019-05-20T16:41:21.992Z,12.23
2019-05-20T16:43:53.241Z,10.33
2019-05-20T16:46:26.665Z,10.20
2019-05-20T16:48:57.699Z,14.43
2019-05-20T16:51:28.052Z,12.63
2019-05-20T16:54:00.735Z,11.13
2019-05-20T16:56:31.875Z,13.27
2019-05-20T16:59:02.703Z,9.73
2019-05-20T17:01:45.544Z,10.67
2019-05-20T17:04:06.143Z,11.67
2019-05-20T17:06:36.673Z,15.03
2019-05-20T17:09:07.627Z,11.40
2019-05-20T17:11:38.762Z,11.93
2019-05-20T17:14:10.704Z,10.80
2019-05-20T17:16:41.268Z,11.90
2019-05-20T17:19:11.841Z,10.80
2019-05-20T17:21:42.180Z,9.97
2019-05-20T17:24:12.664Z,13.27
2019-05-20T17:26:43.796Z,11.80
2019-05-20T17:29:14.978Z,12.57
2019-05-20T17:31:46.327Z,11.70
2019-05-20T17:34:16.467Z,12.10
2019-05-20T17:36:47.106Z,10.00
2019-05-20T17:39:18.514Z,10.70
2019-05-20T17:41:49.270Z,9.80
2019-05-20T17:44:19.592Z,12.87
2019-05-20T17:46:50.335Z,11.20
2019-05-20T17:49:20.735Z,11.07
2019-05-20T17:51:51.953Z,10.30
2019-05-20T17:54:23.375Z,10.20
2019-05-20T17:56:54.307Z,13.77
2019-05-20T17:59:26.078Z,15.30
2019-05-20T18:01:56.816Z,12.30
2019-05-20T18:04:29.141Z,11.67
2019-05-20T18:07:00.128Z,10.10
2019-05-20T18:09:32.031Z,10.50
2019-05-20T18:12:03.459Z,12.50
2019-05-20T18:14:34.404Z,9.93
2019-05-20T18:17:05.278Z,12.70
2019-05-20T18:19:36.354Z,12.43
2019-05-20T18:22:06.613Z,11.83
2019-05-20T18:24:37.099Z,11.90
2019-05-20T18:27:08.498Z,12.77
2019-05-20T18:29:38.854Z,10.90
2019-05-20T18:32:09.968Z,12.57
2019-05-20T18:34:41.157Z,10.20
2019-05-20T18:37:12.884Z,11.30
2019-05-20T18:39:43.198Z,10.50
2019-05-20T18:42:14.176Z,9.57
2019-05-20T18:44:45.709Z,12.10
2019-05-20T18:47:17.068Z,12.50
2019-05-20T18:49:47.789Z,13.10
2019-05-20T18:52:18.686Z,11.80
2019-05-20T18:54:49.234Z,11.40
2019-05-20T18:57:20.778Z,10.93
2019-05-20T18:59:52.698Z,9.90
2019-05-20T19:02:23.552Z,10.50
2019-05-20T19:04:54.910Z,10.00
2019-05-20T19:07:26.462Z,10.90
2019-05-20T19:09:56.891Z,12.17
2019-05-20T19:12:27.887Z,10.90
2019-05-20T19:14:59.092Z,14.57
2019-05-20T19:17:30.455Z,10.00
2019-05-20T19:20:01.011Z,9.00
2019-05-20T19:22:31.315Z,8.80
2019-05-20T19:25:03.594Z,10.57
2019-05-20T19:27:35.445Z,9.40
2019-05-20T19:30:11.299Z,9.03
2019-05-20T19:32:41.824Z,8.20
2019-05-20T19:35:12.780Z,9.20
2019-05-20T19:37:43.350Z,8.60
2019-05-20T19:40:14.186Z,11.57
2019-05-20T19:42:45.613Z,10.57
2019-05-20T19:45:17.167Z,11.70
2019-05-20T19:47:47.913Z,9.40
2019-05-20T19:50:18.793Z,8.00
2019-05-20T19:52:50.872Z,10.07
2019-05-20T19:55:21.761Z,8.23
2019-05-20T19:57:52.635Z,11.63
2019-05-20T20:00:23.315Z,10.20
2019-05-20T20:02:54.182Z,9.30
2019-05-20T20:05:26.352Z,10.57
2019-05-20T20:07:56.703Z,7.70
2019-05-20T20:10:27.830Z,11.33
2019-05-20T20:12:58.975Z,9.73
2019-05-20T20:15:30.139Z,10.30
2019-05-20T20:18:01.273Z,12.27
2019-05-20T20:20:32.007Z,9.90
2019-05-20T20:23:02.556Z,11.70
2019-05-20T20:25:33.285Z,11.07
2019-05-20T20:28:03.815Z,12.60
2019-05-20T20:30:34.619Z,12.93
2019-05-20T20:33:04.887Z,13.10
2019-05-20T20:35:38.391Z,10.63
2019-05-20T20:38:09.652Z,12.80
2019-05-20T20:40:40.183Z,12.50
2019-05-20T20:43:10.839Z,12.50
2019-05-20T20:45:41.441Z,12.73
2019-05-20T20:48:12.331Z,10.90
2019-05-20T20:50:43.329Z,11.90
2019-05-20T20:53:14.475Z,12.70
2019-05-20T20:55:45.431Z,11.53
2019-05-20T20:58:16.214Z,12.73
2019-05-20T21:00:47.104Z,12.63
2019-05-20T21:03:18.051Z,13.97
2019-05-20T21:05:49.200Z,18.17
2019-05-20T21:08:19.530Z,11.13
2019-05-20T21:10:50.083Z,13.03
2019-05-20T21:13:21.006Z,16.03
2019-05-20T21:15:52.161Z,15.33
2019-05-20T21:18:22.889Z,14.00
2019-05-20T21:20:53.639Z,12.47
2019-05-20T21:23:24.778Z,13.87
2019-05-20T21:25:55.675Z,12.03
2019-05-20T21:28:26.453Z,12.97
2019-05-20T21:30:57.158Z,13.57
2019-05-20T21:33:28.337Z,13.23
2019-05-20T21:35:59.698Z,15.00
2019-05-20T21:38:30.230Z,13.33
2019-05-20T21:41:01.178Z,12.80
2019-05-20T21:43:31.500Z,14.50
2019-05-20T21:46:02.038Z,13.67
2019-05-20T21:48:32.772Z,13.77
2019-05-20T21:51:03.197Z,14.00
2019-05-20T21:53:34.454Z,13.90
2019-05-20T21:56:05.817Z,14.97
2019-05-20T21:58:36.270Z,11.87
2019-05-20T22:01:06.931Z,14.27
2019-05-20T22:03:37.433Z,12.77
2019-05-20T22:06:08.106Z,11.47
2019-05-20T22:08:39.086Z,14.37
2019-05-20T22:11:09.668Z,11.97
2019-05-20T22:13:40.720Z,12.77
2019-05-20T22:16:12.141Z,14.20
2019-05-20T22:18:43.271Z,15.67
2019-05-20T22:21:16.066Z,15.00
2019-05-20T22:23:54.778Z,11.30
2019-05-20T22:26:25.936Z,15.00
2019-05-20T22:28:55.952Z,13.33
2019-05-20T22:31:44.821Z,10.90
2019-05-20T22:34:33.726Z,12.63
2019-05-20T22:37:04.616Z,12.07
2019-05-20T22:39:35.478Z,11.13
2019-05-20T22:42:06.787Z,15.00
2019-05-20T22:44:37.700Z,12.57
2019-05-20T22:47:08.353Z,12.07
2019-05-20T22:49:39.897Z,11.97
2019-05-20T22:52:10.956Z,12.23
2019-05-20T22:54:41.952Z,11.30
2019-05-20T22:57:12.931Z,14.60
2019-05-20T22:59:43.579Z,12.10
2019-05-20T23:02:14.395Z,13.33
2019-05-20T23:04:44.898Z,13.00
2019-05-20T23:07:15.078Z,12.77
2019-05-20T23:09:45.335Z,14.60
2019-05-20T23:12:16.292Z,17.37
2019-05-20T23:14:48.467Z,13.70
2019-05-20T23:17:19.607Z,13.40
2019-05-20T23:19:49.705Z,12.73
2019-05-20T23:22:20.228Z,12.37
2019-05-20T23:24:50.389Z,12.00
2019-05-20T23:27:21.349Z,12.83
2019-05-20T23:29:52.083Z,13.40
2019-05-20T23:32:22.981Z,14.73
2019-05-20T23:34:53.493Z,11.80
2019-05-20T23:37:24.095Z,11.70
2019-05-20T23:39:53.830Z,11.77
2019-05-20T23:42:24.559Z,13.53
2019-05-20T23:44:54.874Z,10.77
2019-05-20T23:47:25.593Z,10.73
2019-05-20T23:49:55.741Z,12.10
2019-05-20T23:52:26.676Z,11.17
2019-05-20T23:54:57.831Z,12.90
2019-05-20T23:57:28.313Z,11.60
2019-05-20T23:59:59.510Z,10.30
